Salt Lake City, UT

9:46 PM MDT on September 01, 2015 (GMT -0600)
Salt Lake City International | | Change Station
CLOSE
Current Station
Airport
Location: Salt Lake City,
Elevation: 4226 ft
Nearby Weather Stations

Elev 4226 ft 40.77 °N, 111.97 °W | Updated 53 minutes ago

Partly Cloudy
Partly Cloudy
83 °F
Feels Like 83 °F
N
9
Wind Variable Wind from South

Today
High -- | Low -- °F
--% Chance of Precip.
Yesterday
High -- | Low -- °F
Precip. -- in
6:54 AM 8:00 PM
Waning Gibbous, 84% visible
Pressure 29.71 in
Visibility 10.0 miles
Clouds Scattered Clouds 11000 ft
Scattered Clouds 15000 ft
Scattered Clouds 22000 ft
Dew Point 38 °F
Humidity 20%
Rainfall 0.00 in
Snow Depth Not available.
UV 0 out of 12
Pollen 8.90 out of 12
Air Quality Not available.
Flu Activity Not available.
METAR KSLC 020253Z 17008KT 10SM SCT110 SCT150 SCT220 28/03 A2989 RMK AO2 SLP061 60000 T02830033 53005
Pressure 29.71 in
Visibility 10.0 miles
Clouds Scattered Clouds 11000 ft
Scattered Clouds 15000 ft
Scattered Clouds 22000 ft
Dew Point 38 °F
Humidity 20%
Rainfall 0.00 in
Snow Depth Not available.
UV 0 out of 12
Pollen 8.90 out of 12
Air Quality Not available.
Flu Activity Not available.
METAR KSLC 020253Z 17008KT 10SM SCT110 SCT150 SCT220 28/03 A2989 RMK AO2 SLP061 60000 T02830033 53005

10-Day Weather Forecast

×

Almanac

Astronomy

Sep. 01, 2015 Rise Set
Actual Time
Civil Twilight
Nautical Twilight
Astronomical Twilight
Moon
Length of Visible Light
Length of Day
Tomorrow will be .
, % of the Moon is Illuminated

Today's Extremes

State Highs State Lows

Community

WunderPhotos

Upload Photos

1,851,690 photos uploaded!

WunderBlogs® & News

Nearby

Air Quality

  Air Quality AQ Index Pollutant
Not available.

Snow Depth

Station Depth Elevation

Earthquake Activity

City Distance Mag. Time & Date
Minimum magnitude displayed is 2.5.

Coastal Water Temperatures

Place Temperature

Stations

Nearby Weather Stations

Station Location Temp. Windchill Dew Point Humidity Wind Precip. Elev Updated Type